Terminal Aerodrome Forecast
Issued by NWS Austin/San Antonio, TX

Home | Current Version | Previous Version | Text Only | Print | Product List | Glossary On
Versions: 1 2 3 4 5 6 7 8 9 10 11 12 13
560
FTUS44 KEWX 141138
TAFDRT
TAF
KDRT 141138Z 1412/1512 11009KT P6SM BKN015
     FM141300 11010KT P6SM OVC008
     FM141500 14010KT P6SM BKN015
     FM141800 14011KT P6SM SCT025 SCT250
     FM150100 09007KT P6SM SCT250
     FM151000 35006KT P6SM SCT250=

USA.gov is the U.S. government's official web portal to all federal, state and local government web resources and services.